sensor_id;sensor_type;location;lat;lon;timestamp;pressure;altitude;pressure_sealevel;temperature;humidity
55466;BME280;41329;41.594;23.810;2023-04-30T00:02:06;94984.78;;;12.74;60.68
55466;BME280;41329;41.594;23.810;2023-04-30T00:04:32;94995.50;;;12.86;60.82
55466;BME280;41329;41.594;23.810;2023-04-30T00:06:57;94991.53;;;12.84;61.04
55466;BME280;41329;41.594;23.810;2023-04-30T00:09:23;94997.88;;;12.77;61.27
55466;BME280;41329;41.594;23.810;2023-04-30T00:11:48;94986.34;;;12.75;61.15
55466;BME280;41329;41.594;23.810;2023-04-30T00:14:14;94978.81;;;12.65;61.09
55466;BME280;41329;41.594;23.810;2023-04-30T00:16:40;94974.03;;;12.66;61.46
55466;BME280;41329;41.594;23.810;2023-04-30T00:19:05;94985.16;;;12.69;61.69
55466;BME280;41329;41.594;23.810;2023-04-30T00:21:31;94980.78;;;12.61;61.82
55466;BME280;41329;41.594;23.810;2023-04-30T00:23:57;94983.94;;;12.56;61.94
55466;BME280;41329;41.594;23.810;2023-04-30T00:26:24;94979.56;;;12.55;62.14
55466;BME280;41329;41.594;23.810;2023-04-30T00:28:50;94977.97;;;12.57;61.89
55466;BME280;41329;41.594;23.810;2023-04-30T00:31:15;94934.31;;;12.26;61.60
55466;BME280;41329;41.594;23.810;2023-04-30T00:33:41;94983.16;;;12.52;61.53
55466;BME280;41329;41.594;23.810;2023-04-30T00:36:06;94989.09;;;12.57;61.42
55466;BME280;41329;41.594;23.810;2023-04-30T00:38:31;94987.88;;;12.55;61.19
55466;BME280;41329;41.594;23.810;2023-04-30T00:40:57;94981.53;;;12.51;61.32
55466;BME280;41329;41.594;23.810;2023-04-30T00:43:22;94985.50;;;12.47;61.02
55466;BME280;41329;41.594;23.810;2023-04-30T00:45:48;94973.19;;;12.37;61.06
55466;BME280;41329;41.594;23.810;2023-04-30T00:48:13;94970.41;;;12.33;60.94
55466;BME280;41329;41.594;23.810;2023-04-30T00:50:40;94979.88;;;12.32;61.09
55466;BME280;41329;41.594;23.810;2023-04-30T00:53:08;94974.28;;;12.15;61.56
55466;BME280;41329;41.594;23.810;2023-04-30T00:55:33;94976.25;;;12.18;61.40
55466;BME280;41329;41.594;23.810;2023-04-30T00:57:59;94985.81;;;12.20;61.64
55466;BME280;41329;41.594;23.810;2023-04-30T01:00:26;94977.44;;;12.13;61.61
55466;BME280;41329;41.594;23.810;2023-04-30T01:02:51;94988.59;;;12.24;61.59
55466;BME280;41329;41.594;23.810;2023-04-30T01:05:17;94988.97;;;12.22;61.78
55466;BME280;41329;41.594;23.810;2023-04-30T01:07:43;94969.50;;;12.08;61.32
55466;BME280;41329;41.594;23.810;2023-04-30T01:10:12;94987.78;;;12.20;61.12
55466;BME280;41329;41.594;23.810;2023-04-30T01:21:05;94977.34;;;11.89;61.62
55466;BME280;41329;41.594;23.810;2023-04-30T01:28:37;94984.44;;;11.86;61.95
55466;BME280;41329;41.594;23.810;2023-04-30T01:31:10;94961.81;;;11.74;62.05
55466;BME280;41329;41.594;23.810;2023-04-30T01:33:36;94982.47;;;11.83;61.95
55466;BME280;41329;41.594;23.810;2023-04-30T01:38:47;94981.22;;;11.77;61.98
55466;BME280;41329;41.594;23.810;2023-04-30T01:41:31;94959.31;;;11.58;61.87
55466;BME280;41329;41.594;23.810;2023-04-30T01:47:05;94979.88;;;11.54;62.08
55466;BME280;41329;41.594;23.810;2023-04-30T01:53:09;94937.66;;;11.13;62.40
55466;BME280;41329;41.594;23.810;2023-04-30T01:55:08;94985.31;;;11.40;62.87
55466;BME280;41329;41.594;23.810;2023-04-30T01:57:45;94979.34;;;11.38;63.03
55466;BME280;41329;41.594;23.810;2023-04-30T02:00:15;94963.47;;;11.24;63.27
55466;BME280;41329;41.594;23.810;2023-04-30T02:02:42;94976.94;;;11.33;62.89
55466;BME280;41329;41.594;23.810;2023-04-30T02:05:07;94970.22;;;11.34;63.12
55466;BME280;41329;41.594;23.810;2023-04-30T02:07:39;94967.06;;;11.32;62.92
55466;BME280;41329;41.594;23.810;2023-04-30T02:10:06;94969.78;;;11.25;62.55
55466;BME280;41329;41.594;23.810;2023-04-30T02:12:32;94973.28;;;11.18;62.64
55466;BME280;41329;41.594;23.810;2023-04-30T02:14:57;94966.97;;;11.18;62.96
55466;BME280;41329;41.594;23.810;2023-04-30T02:17:23;94965.75;;;11.15;63.27
55466;BME280;41329;41.594;23.810;2023-04-30T02:19:48;94970.38;;;11.01;63.89
55466;BME280;41329;41.594;23.810;2023-04-30T02:22:13;94976.31;;;11.03;63.29
55466;BME280;41329;41.594;23.810;2023-04-30T02:24:39;94962.03;;;10.97;63.28
55466;BME280;41329;41.594;23.810;2023-04-30T02:27:04;94964.44;;;10.99;63.17
55466;BME280;41329;41.594;23.810;2023-04-30T02:29:30;94966.78;;;10.97;63.51
55466;BME280;41329;41.594;23.810;2023-04-30T02:31:57;94971.97;;;11.02;63.56
55466;BME280;41329;41.594;23.810;2023-04-30T02:34:23;94979.84;;;11.00;63.38
55466;BME280;41329;41.594;23.810;2023-04-30T02:36:48;94982.19;;;10.94;63.03
55466;BME280;41329;41.594;23.810;2023-04-30T02:39:14;94974.28;;;10.93;63.17
55466;BME280;41329;41.594;23.810;2023-04-30T02:41:39;94984.16;;;10.94;63.52
55466;BME280;41329;41.594;23.810;2023-04-30T02:44:05;94978.56;;;10.87;63.57
55466;BME280;41329;41.594;23.810;2023-04-30T02:46:30;94984.09;;;10.87;63.77
55466;BME280;41329;41.594;23.810;2023-04-30T02:48:55;94960.59;;;10.67;63.38
55466;BME280;41329;41.594;23.810;2023-04-30T02:51:21;94994.69;;;10.81;63.46
55466;BME280;41329;41.594;23.810;2023-04-30T02:53:46;94986.00;;;10.79;63.69
55466;BME280;41329;41.594;23.810;2023-04-30T02:56:12;94973.25;;;10.68;63.98
55466;BME280;41329;41.594;23.810;2023-04-30T02:58:37;94977.25;;;10.74;63.87
55466;BME280;41329;41.594;23.810;2023-04-30T03:01:02;94989.91;;;10.75;64.07
55466;BME280;41329;41.594;23.810;2023-04-30T03:03:28;94987.53;;;10.73;64.07
55466;BME280;41329;41.594;23.810;2023-04-30T03:05:53;94993.44;;;10.72;64.34
55466;BME280;41329;41.594;23.810;2023-04-30T03:08:21;94989.84;;;10.68;64.59
55466;BME280;41329;41.594;23.810;2023-04-30T03:10:46;94996.13;;;10.61;64.10
55466;BME280;41329;41.594;23.810;2023-04-30T03:13:11;94994.09;;;10.58;63.94
55466;BME280;41329;41.594;23.810;2023-04-30T03:15:37;94982.13;;;10.47;63.95
55466;BME280;41329;41.594;23.810;2023-04-30T03:18:03;94992.75;;;10.42;64.24
55466;BME280;41329;41.594;23.810;2023-04-30T03:20:28;94987.53;;;10.37;64.40
55466;BME280;41329;41.594;23.810;2023-04-30T03:22:54;95007.28;;;10.35;64.36
55466;BME280;41329;41.594;23.810;2023-04-30T03:25:19;94999.69;;;10.29;64.55
55466;BME280;41329;41.594;23.810;2023-04-30T03:27:44;95009.97;;;10.28;64.73
55466;BME280;41329;41.594;23.810;2023-04-30T03:30:10;94999.28;;;10.27;64.84
55466;BME280;41329;41.594;23.810;2023-04-30T03:32:35;94982.56;;;10.16;65.12
55466;BME280;41329;41.594;23.810;2023-04-30T03:35:01;94986.53;;;10.19;65.50
55466;BME280;41329;41.594;23.810;2023-04-30T03:37:26;95001.66;;;10.28;65.56
55466;BME280;41329;41.594;23.810;2023-04-30T03:39:51;94972.59;;;10.08;65.55
55466;BME280;41329;41.594;23.810;2023-04-30T03:42:17;94948.28;;;9.91;65.59
55466;BME280;41329;41.594;23.810;2023-04-30T03:44:42;95007.19;;;10.28;65.58
55466;BME280;41329;41.594;23.810;2023-04-30T03:47:08;95017.91;;;10.33;65.73
55466;BME280;41329;41.594;23.810;2023-04-30T03:49:33;95016.75;;;10.34;66.21
55466;BME280;41329;41.594;23.810;2023-04-30T03:51:59;95012.38;;;10.33;66.37
55466;BME280;41329;41.594;23.810;2023-04-30T03:54:25;95029.91;;;10.44;66.43
55466;BME280;41329;41.594;23.810;2023-04-30T03:56:50;95016.84;;;10.41;66.09
55466;BME280;41329;41.594;23.810;2023-04-30T03:59:16;95022.00;;;10.43;65.76
55466;BME280;41329;41.594;23.810;2023-04-30T04:01:42;95035.47;;;10.48;65.94
55466;BME280;41329;41.594;23.810;2023-04-30T04:04:08;95032.19;;;10.35;65.76
55466;BME280;41329;41.594;23.810;2023-04-30T04:06:33;95028.59;;;10.35;65.48
55466;BME280;41329;41.594;23.810;2023-04-30T04:08:59;95028.59;;;10.35;65.47
55466;BME280;41329;41.594;23.810;2023-04-30T04:11:24;95013.47;;;10.25;65.82
55466;BME280;41329;41.594;23.810;2023-04-30T04:13:50;95032.59;;;10.37;66.30
55466;BME280;41329;41.594;23.810;2023-04-30T04:16:15;95029.44;;;10.39;66.55
55466;BME280;41329;41.594;23.810;2023-04-30T04:18:41;95023.06;;;10.35;66.34
55466;BME280;41329;41.594;23.810;2023-04-30T04:21:06;95008.78;;;10.29;66.62
55466;BME280;41329;41.594;23.810;2023-04-30T04:23:31;95026.25;;;10.37;66.37
55466;BME280;41329;41.594;23.810;2023-04-30T04:25:57;95025.47;;;10.36;66.75
55466;BME280;41329;41.594;23.810;2023-04-30T04:28:22;95033.00;;;10.39;66.83
55466;BME280;41329;41.594;23.810;2023-04-30T04:30:48;95034.22;;;10.42;67.12
55466;BME280;41329;41.594;23.810;2023-04-30T04:33:13;95024.31;;;10.41;67.56
55466;BME280;41329;41.594;23.810;2023-04-30T04:35:39;95040.63;;;10.49;67.80
55466;BME280;41329;41.594;23.810;2023-04-30T04:38:05;95045.44;;;10.56;67.88
55466;BME280;41329;41.594;23.810;2023-04-30T04:40:30;95043.88;;;10.58;68.26
55466;BME280;41329;41.594;23.810;2023-04-30T04:42:55;95050.72;;;10.68;68.14
55466;BME280;41329;41.594;23.810;2023-04-30T04:45:21;95041.59;;;10.64;68.07
55466;BME280;41329;41.594;23.810;2023-04-30T04:47:47;95060.59;;;10.69;67.95
55466;BME280;41329;41.594;23.810;2023-04-30T04:50:13;95053.88;;;10.70;67.98
55466;BME280;41329;41.594;23.810;2023-04-30T04:52:39;95058.91;;;10.57;68.10
55466;BME280;41329;41.594;23.810;2023-04-30T04:55:05;95064.00;;;10.22;68.85
55466;BME280;41329;41.594;23.810;2023-04-30T04:57:31;95043.94;;;9.99;69.46
55466;BME280;41329;41.594;23.810;2023-04-30T04:59:56;95063.13;;;9.89;71.05
55466;BME280;41329;41.594;23.810;2023-04-30T05:02:22;95061.81;;;9.79;71.87
55466;BME280;41329;41.594;23.810;2023-04-30T05:04:48;95055.28;;;9.65;72.55
55466;BME280;41329;41.594;23.810;2023-04-30T05:07:16;95059.69;;;9.69;73.01
55466;BME280;41329;41.594;23.810;2023-04-30T05:09:42;95061.53;;;9.88;72.45
55466;BME280;41329;41.594;23.810;2023-04-30T05:12:07;95066.22;;;9.84;72.53
55466;BME280;41329;41.594;23.810;2023-04-30T05:14:32;95066.31;;;9.91;72.81
55466;BME280;41329;41.594;23.810;2023-04-30T05:16:58;95051.34;;;9.92;72.50
55466;BME280;41329;41.594;23.810;2023-04-30T05:19:23;95041.75;;;9.86;72.53
55466;BME280;41329;41.594;23.810;2023-04-30T05:21:48;95069.59;;;10.00;72.32
55466;BME280;41329;41.594;23.810;2023-04-30T05:24:14;95051.38;;;9.95;72.23
55466;BME280;41329;41.594;23.810;2023-04-30T05:26:39;95045.53;;;10.04;72.22
55466;BME280;41329;41.594;23.810;2023-04-30T05:29:05;95047.41;;;10.22;72.42
55466;BME280;41329;41.594;23.810;2023-04-30T05:31:30;95068.56;;;10.41;72.14
55466;BME280;41329;41.594;23.810;2023-04-30T05:33:56;95062.25;;;10.40;71.93
55466;BME280;41329;41.594;23.810;2023-04-30T05:36:22;95056.41;;;10.49;72.01
55466;BME280;41329;41.594;23.810;2023-04-30T05:38:47;95073.25;;;10.70;72.03
55466;BME280;41329;41.594;23.810;2023-04-30T05:41:12;95068.28;;;10.86;72.14
55466;BME280;41329;41.594;23.810;2023-04-30T05:43:38;95071.56;;;10.95;71.74
55466;BME280;41329;41.594;23.810;2023-04-30T05:46:03;95059.28;;;10.92;71.32
55466;BME280;41329;41.594;23.810;2023-04-30T05:48:29;95070.94;;;11.12;71.00
55466;BME280;41329;41.594;23.810;2023-04-30T05:50:55;95067.06;;;11.23;70.82
55466;BME280;41329;41.594;23.810;2023-04-30T05:53:20;95050.50;;;11.27;70.92
55466;BME280;41329;41.594;23.810;2023-04-30T05:55:46;95036.84;;;11.04;70.28
55466;BME280;41329;41.594;23.810;2023-04-30T05:58:11;95065.75;;;11.07;70.07
55466;BME280;41329;41.594;23.810;2023-04-30T06:00:36;95061.16;;;11.25;70.47
55466;BME280;41329;41.594;23.810;2023-04-30T06:03:03;95044.13;;;11.19;71.04
55466;BME280;41329;41.594;23.810;2023-04-30T06:05:28;95036.47;;;11.06;71.48
55466;BME280;41329;41.594;23.810;2023-04-30T06:07:54;95049.59;;;11.16;71.27
55466;BME280;41329;41.594;23.810;2023-04-30T06:10:19;95057.28;;;11.33;71.24
55466;BME280;41329;41.594;23.810;2023-04-30T06:12:45;95065.22;;;11.38;70.91
55466;BME280;41329;41.594;23.810;2023-04-30T06:15:10;95063.34;;;11.49;70.94
55466;BME280;41329;41.594;23.810;2023-04-30T06:17:36;95058.00;;;11.70;70.43
55466;BME280;41329;41.594;23.810;2023-04-30T06:20:02;95063.22;;;11.78;69.65
55466;BME280;41329;41.594;23.810;2023-04-30T06:22:31;95047.00;;;11.84;69.10
55466;BME280;41329;41.594;23.810;2023-04-30T06:24:57;94987.47;;;11.60;69.09
55466;BME280;41329;41.594;23.810;2023-04-30T06:27:23;95061.41;;;12.07;68.57
55466;BME280;41329;41.594;23.810;2023-04-30T06:29:49;95051.56;;;12.16;67.75
55466;BME280;41329;41.594;23.810;2023-04-30T06:32:14;95044.84;;;12.21;67.51
55466;BME280;41329;41.594;23.810;2023-04-30T06:34:41;95049.63;;;12.24;66.85
55466;BME280;41329;41.594;23.810;2023-04-30T06:37:06;95042.91;;;12.32;66.78
55466;BME280;41329;41.594;23.810;2023-04-30T06:39:31;95039.38;;;12.42;66.87
55466;BME280;41329;41.594;23.810;2023-04-30T06:41:57;95041.03;;;12.64;66.04
55466;BME280;41329;41.594;23.810;2023-04-30T06:44:22;95043.47;;;12.76;65.28
55466;BME280;41329;41.594;23.810;2023-04-30T06:46:47;95045.88;;;12.85;63.91
55466;BME280;41329;41.594;23.810;2023-04-30T06:49:13;95042.75;;;12.97;63.92
55466;BME280;41329;41.594;23.810;2023-04-30T06:51:40;95040.81;;;13.15;63.26
55466;BME280;41329;41.594;23.810;2023-04-30T06:54:05;95037.63;;;13.20;62.63
55466;BME280;41329;41.594;23.810;2023-04-30T06:56:31;95025.72;;;13.26;61.76
55466;BME280;41329;41.594;23.810;2023-04-30T06:58:56;95029.31;;;13.30;62.82
55466;BME280;41329;41.594;23.810;2023-04-30T07:01:22;95033.66;;;13.52;62.12
55466;BME280;41329;41.594;23.810;2023-04-30T07:03:47;95040.44;;;13.76;61.76
55466;BME280;41329;41.594;23.810;2023-04-30T07:06:12;95032.84;;;13.97;61.33
55466;BME280;41329;41.594;23.810;2023-04-30T07:08:38;95034.38;;;14.09;59.13
55466;BME280;41329;41.594;23.810;2023-04-30T07:11:05;95038.34;;;14.22;60.13
55466;BME280;41329;41.594;23.810;2023-04-30T07:13:31;95030.75;;;14.36;58.88
55466;BME280;41329;41.594;23.810;2023-04-30T07:15:56;95038.28;;;14.50;59.75
55466;BME280;41329;41.594;23.810;2023-04-30T07:18:22;95017.19;;;14.52;59.35
55466;BME280;41329;41.594;23.810;2023-04-30T07:20:47;95029.81;;;14.78;59.22
55466;BME280;41329;41.594;23.810;2023-04-30T07:23:13;95025.38;;;14.84;57.36
55466;BME280;41329;41.594;23.810;2023-04-30T07:25:38;95040.09;;;14.91;57.59
55466;BME280;41329;41.594;23.810;2023-04-30T07:28:04;95038.34;;;15.11;58.91
55466;BME280;41329;41.594;23.810;2023-04-30T07:30:29;95031.94;;;15.21;57.09
55466;BME280;41329;41.594;23.810;2023-04-30T07:32:55;95027.97;;;15.19;56.92
55466;BME280;41329;41.594;23.810;2023-04-30T07:35:21;95028.72;;;15.26;56.49
55466;BME280;41329;41.594;23.810;2023-04-30T07:37:46;95031.44;;;15.40;56.61
55466;BME280;41329;41.594;23.810;2023-04-30T07:40:12;95028.16;;;15.52;55.76
55466;BME280;41329;41.594;23.810;2023-04-30T07:42:40;95030.91;;;15.59;54.44
55466;BME280;41329;41.594;23.810;2023-04-30T07:45:09;94996.66;;;15.55;55.01
55466;BME280;41329;41.594;23.810;2023-04-30T07:47:35;95030.44;;;15.64;54.53
55466;BME280;41329;41.594;23.810;2023-04-30T07:50:00;95038.13;;;15.50;54.24
55466;BME280;41329;41.594;23.810;2023-04-30T07:52:26;95034.03;;;15.61;54.23
55466;BME280;41329;41.594;23.810;2023-04-30T07:54:52;95017.75;;;15.56;53.52
55466;BME280;41329;41.594;23.810;2023-04-30T07:57:18;95017.22;;;15.75;53.38
55466;BME280;41329;41.594;23.810;2023-04-30T07:59:43;95023.88;;;15.85;54.42
55466;BME280;41329;41.594;23.810;2023-04-30T08:02:09;95016.75;;;15.80;53.28
55466;BME280;41329;41.594;23.810;2023-04-30T08:04:34;95003.69;;;15.70;53.43
55466;BME280;41329;41.594;23.810;2023-04-30T08:07:00;95016.25;;;15.89;53.45
55466;BME280;41329;41.594;23.810;2023-04-30T08:09:26;95013.41;;;15.96;53.46
55466;BME280;41329;41.594;23.810;2023-04-30T08:11:51;95012.63;;;15.95;53.45
55466;BME280;41329;41.594;23.810;2023-04-30T08:14:17;95012.59;;;15.99;53.71
55466;BME280;41329;41.594;23.810;2023-04-30T08:16:43;94984.19;;;16.07;52.50
55466;BME280;41329;41.594;23.810;2023-04-30T08:19:08;94996.25;;;16.34;54.07
55466;BME280;41329;41.594;23.810;2023-04-30T08:21:34;95010.13;;;16.45;52.35
55466;BME280;41329;41.594;23.810;2023-04-30T08:24:00;95005.94;;;16.60;53.27
55466;BME280;41329;41.594;23.810;2023-04-30T08:26:26;94997.00;;;16.72;52.70
55466;BME280;41329;41.594;23.810;2023-04-30T08:28:51;95004.28;;;16.96;53.64
55466;BME280;41329;41.594;23.810;2023-04-30T08:31:17;94986.28;;;16.97;51.82
55466;BME280;41329;41.594;23.810;2023-04-30T08:33:42;94981.72;;;17.10;52.16
55466;BME280;41329;41.594;23.810;2023-04-30T08:36:07;94995.75;;;17.33;50.89
55466;BME280;41329;41.594;23.810;2023-04-30T08:38:33;94975.47;;;17.25;49.37
55466;BME280;41329;41.594;23.810;2023-04-30T08:41:10;94989.47;;;17.52;50.96
55466;BME280;41329;41.594;23.810;2023-04-30T08:43:36;94986.25;;;17.76;49.55
55466;BME280;41329;41.594;23.810;2023-04-30T08:46:02;94985.47;;;17.99;50.14
55466;BME280;41329;41.594;23.810;2023-04-30T08:48:29;94986.09;;;18.30;50.68
55466;BME280;41329;41.594;23.810;2023-04-30T08:50:55;94989.53;;;18.60;48.57
55466;BME280;41329;41.594;23.810;2023-04-30T08:53:23;94978.81;;;18.75;46.11
55466;BME280;41329;41.594;23.810;2023-04-30T08:55:48;94978.06;;;18.90;45.17
55466;BME280;41329;41.594;23.810;2023-04-30T08:58:14;94983.34;;;19.04;46.59
55466;BME280;41329;41.594;23.810;2023-04-30T09:00:40;94957.94;;;18.95;44.76
55466;BME280;41329;41.594;23.810;2023-04-30T09:03:06;94975.75;;;19.05;44.15
55466;BME280;41329;41.594;23.810;2023-04-30T09:05:32;94970.81;;;19.28;46.81
55466;BME280;41329;41.594;23.810;2023-04-30T09:07:58;94975.34;;;19.58;45.63
55466;BME280;41329;41.594;23.810;2023-04-30T09:10:23;94972.44;;;19.61;43.82
55466;BME280;41329;41.594;23.810;2023-04-30T09:12:58;94961.47;;;19.51;42.23
55466;BME280;41329;41.594;23.810;2023-04-30T09:15:25;94938.84;;;19.42;42.49
55466;BME280;41329;41.594;23.810;2023-04-30T09:18:05;94954.63;;;19.84;43.84
55466;BME280;41329;41.594;23.810;2023-04-30T09:20:33;94958.00;;;20.07;41.10
55466;BME280;41329;41.594;23.810;2023-04-30T09:23:08;94953.81;;;19.99;41.82
55466;BME280;41329;41.594;23.810;2023-04-30T09:25:41;94945.84;;;20.14;42.54
55466;BME280;41329;41.594;23.810;2023-04-30T09:28:11;94940.47;;;20.19;39.43
55466;BME280;41329;41.594;23.810;2023-04-30T09:30:37;94944.50;;;20.18;39.79
55466;BME280;41329;41.594;23.810;2023-04-30T09:33:03;94929.09;;;20.10;40.11
55466;BME280;41329;41.594;23.810;2023-04-30T09:35:33;94939.94;;;20.24;40.96
55466;BME280;41329;41.594;23.810;2023-04-30T09:38:02;94935.84;;;20.41;39.60
55466;BME280;41329;41.594;23.810;2023-04-30T09:40:36;94913.38;;;20.54;39.31
55466;BME280;41329;41.594;23.810;2023-04-30T09:43:03;94928.28;;;20.67;38.15
55466;BME280;41329;41.594;23.810;2023-04-30T09:45:42;94923.78;;;20.69;37.24
55466;BME280;41329;41.594;23.810;2023-04-30T09:48:08;94866.28;;;20.45;37.22
55466;BME280;41329;41.594;23.810;2023-04-30T09:50:38;94917.31;;;20.97;37.67
55466;BME280;41329;41.594;23.810;2023-04-30T09:53:08;94913.09;;;21.18;38.44
55466;BME280;41329;41.594;23.810;2023-04-30T09:55:35;94893.47;;;21.39;37.04
55466;BME280;41329;41.594;23.810;2023-04-30T09:58:05;94899.72;;;21.68;39.47
55466;BME280;41329;41.594;23.810;2023-04-30T10:00:34;94890.50;;;21.93;35.09
55466;BME280;41329;41.594;23.810;2023-04-30T10:03:05;94897.69;;;21.94;36.15
55466;BME280;41329;41.594;23.810;2023-04-30T10:05:36;94885.16;;;21.95;35.66
55466;BME280;41329;41.594;23.810;2023-04-30T10:08:06;94887.09;;;21.98;35.46
55466;BME280;41329;41.594;23.810;2023-04-30T10:10:32;94877.97;;;21.94;35.24
55466;BME280;41329;41.594;23.810;2023-04-30T10:13:03;94879.31;;;21.89;35.55
55466;BME280;41329;41.594;23.810;2023-04-30T10:15:34;94893.00;;;21.66;34.09
55466;BME280;41329;41.594;23.810;2023-04-30T10:18:10;94873.63;;;21.68;36.62
55466;BME280;41329;41.594;23.810;2023-04-30T10:20:38;94847.72;;;21.73;34.88
55466;BME280;41329;41.594;23.810;2023-04-30T10:23:04;94882.03;;;21.93;34.86
55466;BME280;41329;41.594;23.810;2023-04-30T10:25:31;94883.09;;;21.61;34.65
55466;BME280;41329;41.594;23.810;2023-04-30T10:27:57;94869.69;;;21.65;34.63
55466;BME280;41329;41.594;23.810;2023-04-30T10:30:22;94870.25;;;21.60;35.21
55466;BME280;41329;41.594;23.810;2023-04-30T10:35:45;94876.97;;;21.88;34.56
55466;BME280;41329;41.594;23.810;2023-04-30T10:38:20;94871.22;;;21.91;33.80
55466;BME280;41329;41.594;23.810;2023-04-30T10:40:47;94886.34;;;22.19;34.25
55466;BME280;41329;41.594;23.810;2023-04-30T10:43:12;94869.09;;;22.17;32.59
55466;BME280;41329;41.594;23.810;2023-04-30T10:45:42;94870.47;;;22.34;34.08
55466;BME280;41329;41.594;23.810;2023-04-30T10:48:08;94866.72;;;22.15;32.60
55466;BME280;41329;41.594;23.810;2023-04-30T10:50:41;94864.66;;;22.28;32.80
55466;BME280;41329;41.594;23.810;2023-04-30T10:53:12;94858.97;;;22.62;34.65
55466;BME280;41329;41.594;23.810;2023-04-30T10:55:53;94848.09;;;22.82;34.00
55466;BME280;41329;41.594;23.810;2023-04-30T10:58:27;94860.50;;;23.16;34.06
55466;BME280;41329;41.594;23.810;2023-04-30T11:01:07;94850.56;;;23.33;32.30
55466;BME280;41329;41.594;23.810;2023-04-30T11:03:34;94853.44;;;23.51;32.94
55466;BME280;41329;41.594;23.810;2023-04-30T11:06:07;94843.13;;;23.66;31.03
55466;BME280;41329;41.594;23.810;2023-04-30T11:08:36;94843.34;;;23.32;30.78
55466;BME280;41329;41.594;23.810;2023-04-30T11:11:02;94829.75;;;22.78;31.74
55466;BME280;41329;41.594;23.810;2023-04-30T11:13:38;94839.94;;;23.06;31.76
55466;BME280;41329;41.594;23.810;2023-04-30T11:16:04;94835.44;;;22.87;32.60
55466;BME280;41329;41.594;23.810;2023-04-30T11:18:30;94821.06;;;22.63;31.58
55466;BME280;41329;41.594;23.810;2023-04-30T11:20:56;94820.31;;;22.72;32.01
55466;BME280;41329;41.594;23.810;2023-04-30T11:23:22;94826.78;;;22.81;31.88
55466;BME280;41329;41.594;23.810;2023-04-30T11:25:53;94829.69;;;22.99;32.85
55466;BME280;41329;41.594;23.810;2023-04-30T11:28:26;94813.78;;;23.15;32.37
55466;BME280;41329;41.594;23.810;2023-04-30T11:30:59;94829.13;;;23.14;31.17
55466;BME280;41329;41.594;23.810;2023-04-30T11:33:33;94831.72;;;22.90;32.14
55466;BME280;41329;41.594;23.810;2023-04-30T11:36:01;94804.13;;;22.94;30.17
55466;BME280;41329;41.594;23.810;2023-04-30T11:38:27;94823.34;;;23.17;31.93
55466;BME280;41329;41.594;23.810;2023-04-30T11:40:53;94815.75;;;23.05;30.61
55466;BME280;41329;41.594;23.810;2023-04-30T11:43:26;94819.03;;;23.03;30.24
55466;BME280;41329;41.594;23.810;2023-04-30T11:48:40;94819.09;;;22.73;30.70
55466;BME280;41329;41.594;23.810;2023-04-30T11:53:40;94839.97;;;22.84;31.66
55466;BME280;41329;41.594;23.810;2023-04-30T11:56:06;94835.22;;;22.72;30.62
55466;BME280;41329;41.594;23.810;2023-04-30T11:58:33;94845.31;;;22.61;30.63
55466;BME280;41329;41.594;23.810;2023-04-30T12:00:59;94855.44;;;22.49;31.81
55466;BME280;41329;41.594;23.810;2023-04-30T12:03:25;94856.13;;;22.41;30.84
55466;BME280;41329;41.594;23.810;2023-04-30T12:05:51;94859.13;;;22.25;30.63
55466;BME280;41329;41.594;23.810;2023-04-30T12:08:18;94862.03;;;22.12;31.43
55466;BME280;41329;41.594;23.810;2023-04-30T12:10:43;94842.00;;;21.98;31.33
55466;BME280;41329;41.594;23.810;2023-04-30T12:13:12;94845.59;;;21.98;33.66
55466;BME280;41329;41.594;23.810;2023-04-30T12:15:38;94849.94;;;22.12;36.55
55466;BME280;41329;41.594;23.810;2023-04-30T12:18:11;94837.66;;;22.40;38.15
55466;BME280;41329;41.594;23.810;2023-04-30T12:20:38;94838.75;;;22.64;35.56
55466;BME280;41329;41.594;23.810;2023-04-30T12:23:04;94829.09;;;22.74;38.31
55466;BME280;41329;41.594;23.810;2023-04-30T12:25:30;94823.56;;;22.92;36.57
55466;BME280;41329;41.594;23.810;2023-04-30T12:27:58;94821.28;;;23.09;37.19
55466;BME280;41329;41.594;23.810;2023-04-30T12:30:25;94820.91;;;23.28;33.03
55466;BME280;41329;41.594;23.810;2023-04-30T12:32:57;94820.00;;;23.40;31.82
55466;BME280;41329;41.594;23.810;2023-04-30T12:35:23;94823.97;;;23.61;31.32
55466;BME280;41329;41.594;23.810;2023-04-30T12:37:50;94822.00;;;23.97;32.36
55466;BME280;41329;41.594;23.810;2023-04-30T12:40:21;94815.72;;;24.20;28.83
55466;BME280;41329;41.594;23.810;2023-04-30T12:42:58;94808.03;;;23.94;29.42
55466;BME280;41329;41.594;23.810;2023-04-30T12:45:49;94817.88;;;23.89;32.24
55466;BME280;41329;41.594;23.810;2023-04-30T12:48:19;94810.19;;;23.90;33.90
55466;BME280;41329;41.594;23.810;2023-04-30T12:51:00;94807.66;;;23.65;32.73
55466;BME280;41329;41.594;23.810;2023-04-30T12:53:27;94812.91;;;22.96;32.90
55466;BME280;41329;41.594;23.810;2023-04-30T12:56:25;94804.22;;;22.51;34.39
55466;BME280;41329;41.594;23.810;2023-04-30T12:58:50;94816.19;;;22.42;34.09
55466;BME280;41329;41.594;23.810;2023-04-30T13:01:19;94798.69;;;21.83;35.68
55466;BME280;41329;41.594;23.810;2023-04-30T13:03:46;94822.81;;;22.05;36.71
55466;BME280;41329;41.594;23.810;2023-04-30T13:06:12;94835.94;;;22.21;36.12
55466;BME280;41329;41.594;23.810;2023-04-30T13:08:38;94820.03;;;21.71;36.52
55466;BME280;41329;41.594;23.810;2023-04-30T13:11:04;94829.50;;;21.52;36.64
55466;BME280;41329;41.594;23.810;2023-04-30T13:13:29;94835.75;;;20.85;37.05
55466;BME280;41329;41.594;23.810;2023-04-30T13:15:55;94819.66;;;20.60;38.49
55466;BME280;41329;41.594;23.810;2023-04-30T13:18:20;94815.88;;;20.26;39.84
55466;BME280;41329;41.594;23.810;2023-04-30T13:20:46;94837.66;;;19.93;41.25